createdAt,value
2018-08-25T00:00:44.735Z,24.4
2018-08-25T00:01:34.718Z,24.4
2018-08-25T00:02:25.348Z,24.5
2018-08-25T00:03:14.632Z,24.5
2018-08-25T00:04:04.147Z,24.4
2018-08-25T00:04:55.628Z,24.5
2018-08-25T00:05:44.570Z,24.5
2018-08-25T00:06:35.169Z,24.4
2018-08-25T00:07:25.239Z,24.5
2018-08-25T00:08:14.678Z,24.5
2018-08-25T00:09:05.703Z,24.5
2018-08-25T00:09:55.066Z,24.5
2018-08-25T00:10:46.576Z,24.5
2018-08-25T00:11:36.014Z,24.5
2018-08-25T00:12:26.143Z,24.5
2018-08-25T00:31:21.763Z,24.5
2018-08-25T00:32:12.092Z,24.5
2018-08-25T00:33:01.914Z,24.5
2018-08-25T00:33:52.515Z,24.5
2018-08-25T00:34:42.272Z,24.5
2018-08-25T00:35:32.341Z,24.5
2018-08-25T00:36:22.369Z,24.5
2018-08-25T00:37:12.467Z,24.5
2018-08-25T00:38:02.544Z,24.5
2018-08-25T00:38:53.117Z,24.5
2018-08-25T00:39:43.208Z,24.5
2018-08-25T00:40:32.720Z,24.5
2018-08-25T00:41:23.624Z,24.5
2018-08-25T00:42:12.646Z,24.5
2018-08-25T00:43:02.071Z,24.5
2018-08-25T00:43:53.513Z,24.5
2018-08-25T00:44:42.794Z,24.5
2018-08-25T00:45:31.971Z,24.5
2018-08-25T00:46:23.378Z,24.5
2018-08-25T00:47:13.499Z,24.5
2018-08-25T00:48:03.509Z,24.5
2018-08-25T00:48:53.358Z,24.5
2018-08-25T00:49:43.506Z,24.6
2018-08-25T00:50:33.779Z,24.5
2018-08-25T00:51:22.988Z,24.5
2018-08-25T00:52:13.076Z,24.5
2018-08-25T00:53:03.121Z,24.5
2018-08-25T00:53:53.221Z,24.5
2018-08-25T00:54:43.279Z,24.5
2018-08-25T00:55:34.249Z,24.6
2018-08-25T00:56:23.981Z,24.5
2018-08-25T00:57:14.291Z,24.5
2018-08-25T00:58:03.498Z,24.5
2018-08-25T00:58:53.936Z,24.5
2018-08-25T00:59:44.017Z,24.5
2018-08-25T01:00:34.015Z,24.6
2018-08-25T01:01:24.623Z,24.5
2018-08-25T01:02:15.261Z,24.5
2018-08-25T01:03:03.338Z,24.6
2018-08-25T01:03:54.514Z,24.6
2018-08-25T01:04:44.599Z,24.6
2018-08-25T01:05:34.420Z,24.5
2018-08-25T01:06:23.642Z,24.6
2018-08-25T01:07:14.432Z,24.6
2018-08-25T01:08:05.228Z,24.5
2018-08-25T01:08:54.929Z,24.5
2018-08-25T01:09:44.994Z,24.6
2018-08-25T01:10:35.335Z,24.6
2018-08-25T01:11:25.125Z,24.6
2018-08-25T01:12:14.482Z,24.6
2018-08-25T01:13:05.547Z,24.6
2018-08-25T01:13:54.522Z,24.6
2018-08-25T01:14:44.567Z,24.6
2018-08-25T01:15:35.401Z,24.6
2018-08-25T01:16:25.189Z,24.6
2018-08-25T01:17:14.933Z,24.6
2018-08-25T01:18:04.814Z,24.6
2018-08-25T01:18:55.424Z,24.6
2018-08-25T01:19:45.591Z,24.6
2018-08-25T01:20:36.143Z,24.6
2018-08-25T01:21:24.775Z,24.6
2018-08-25T01:22:16.208Z,24.6
2018-08-25T01:23:06.305Z,24.6
2018-08-25T01:23:56.341Z,24.5
2018-08-25T01:24:45.918Z,24.6
2018-08-25T01:25:35.963Z,24.6
2018-08-25T01:26:26.576Z,24.6
2018-08-25T01:27:15.791Z,24.6
2018-08-25T01:28:05.801Z,24.6
2018-08-25T01:28:56.211Z,24.6
2018-08-25T01:29:45.137Z,24.6
2018-08-25T01:30:36.941Z,24.6
2018-08-25T01:31:26.677Z,24.6
2018-08-25T01:32:16.394Z,24.5
2018-08-25T01:33:06.702Z,24.6
2018-08-25T01:33:56.840Z,24.6
2018-08-25T01:34:46.636Z,24.6
2018-08-25T01:35:37.020Z,24.6
2018-08-25T01:36:27.039Z,24.6
2018-08-25T01:37:15.998Z,24.6
2018-08-25T01:38:07.731Z,24.6
2018-08-25T01:38:57.497Z,24.6
2018-08-25T01:39:47.365Z,24.6
2018-08-25T01:40:37.353Z,24.6
2018-08-25T01:41:27.717Z,24.6
2018-08-25T01:42:16.974Z,24.5
2018-08-25T01:43:08.192Z,24.6
2018-08-25T01:43:58.183Z,24.6
2018-08-25T01:44:48.260Z,24.6
2018-08-25T01:45:37.194Z,24.6
2018-08-25T01:46:28.122Z,24.6
2018-08-25T01:47:17.927Z,24.6
2018-08-25T01:48:07.668Z,24.6
2018-08-25T01:48:57.522Z,24.6
2018-08-25T01:49:47.312Z,24.6
2018-08-25T01:50:38.215Z,24.6
2018-08-25T01:51:27.208Z,24.6
2018-08-25T01:52:18.297Z,24.6
2018-08-25T01:53:08.329Z,24.6
2018-08-25T01:53:58.691Z,24.6
2018-08-25T01:54:48.553Z,24.6
2018-08-25T01:55:37.759Z,24.6
2018-08-25T01:56:27.852Z,24.6
2018-08-25T01:57:18.105Z,24.6
2018-08-25T01:58:08.281Z,24.6
2018-08-25T01:58:58.870Z,24.6
2018-08-25T01:59:48.431Z,24.6
2018-08-25T02:00:38.762Z,24.6
2018-08-25T02:01:28.821Z,24.6
2018-08-25T02:02:18.322Z,24.6
2018-08-25T02:03:09.208Z,24.6
2018-08-25T02:03:59.197Z,24.6
2018-08-25T02:04:48.746Z,24.6
2018-08-25T02:05:39.608Z,24.6
2018-08-25T02:06:28.684Z,24.6
2018-08-25T02:07:18.705Z,24.6
2018-08-25T02:08:09.323Z,24.6
2018-08-25T02:08:59.435Z,24.6
2018-08-25T02:09:48.891Z,24.6
2018-08-25T02:10:38.754Z,24.6
2018-08-25T02:11:29.015Z,24.6
2018-08-25T02:12:17.943Z,24.6
2018-08-25T02:13:09.720Z,24.6
2018-08-25T02:14:00.012Z,24.6
2018-08-25T02:14:49.250Z,24.6
2018-08-25T02:15:39.847Z,24.6
2018-08-25T02:16:29.698Z,24.6
2018-08-25T02:17:19.730Z,24.6
2018-08-25T02:18:09.783Z,24.6
2018-08-25T02:19:00.643Z,24.6
2018-08-25T02:19:50.197Z,24.6
2018-08-25T02:20:39.673Z,24.6
2018-08-25T02:21:30.020Z,24.6
2018-08-25T02:22:20.452Z,24.6
2018-08-25T02:23:10.460Z,24.6
2018-08-25T02:24:00.492Z,24.6
2018-08-25T02:24:50.331Z,24.6
2018-08-25T02:25:40.113Z,24.6
2018-08-25T02:26:30.739Z,24.6
2018-08-25T02:27:20.773Z,24.6
2018-08-25T02:28:11.704Z,24.6
2018-08-25T02:29:00.411Z,24.6
2018-08-25T02:29:49.395Z,24.6
2018-08-25T02:30:40.055Z,24.6
2018-08-25T02:31:30.082Z,24.6
2018-08-25T02:32:20.441Z,24.6
2018-08-25T02:33:10.408Z,24.6
2018-08-25T02:34:01.067Z,24.6
2018-08-25T02:34:50.842Z,24.6
2018-08-25T02:35:41.718Z,24.6
2018-08-25T02:36:30.937Z,24.6
2018-08-25T02:37:21.333Z,24.6
2018-08-25T02:38:11.385Z,24.6
2018-08-25T02:39:00.585Z,24.6
2018-08-25T02:39:51.191Z,24.6
2018-08-25T02:40:41.321Z,24.6
2018-08-25T02:41:31.079Z,24.6
2018-08-25T02:42:22.296Z,24.6
2018-08-25T02:43:11.199Z,24.6
2018-08-25T02:44:01.043Z,24.6
2018-08-25T02:44:51.649Z,24.6
2018-08-25T02:45:42.309Z,24.6
2018-08-25T02:46:31.307Z,24.6
2018-08-25T02:47:22.631Z,24.6
2018-08-25T02:48:12.189Z,24.6
2018-08-25T02:49:01.886Z,24.6
2018-08-25T02:49:51.713Z,24.6
2018-08-25T02:50:42.326Z,24.6
2018-08-25T02:51:32.457Z,24.6
2018-08-25T02:52:22.418Z,24.6
2018-08-25T02:53:12.296Z,24.6
2018-08-25T02:54:01.448Z,24.6
2018-08-25T02:54:53.180Z,24.6
2018-08-25T02:55:42.726Z,24.6
2018-08-25T02:56:33.094Z,24.6
2018-08-25T02:57:23.130Z,24.6
2018-08-25T02:58:12.096Z,24.6
2018-08-25T02:59:02.981Z,24.6
2018-08-25T02:59:53.078Z,24.6
2018-08-25T03:00:43.143Z,24.6
2018-08-25T03:01:32.932Z,24.6
2018-08-25T03:02:22.953Z,24.6
2018-08-25T03:03:13.028Z,24.6
2018-08-25T03:04:03.658Z,24.6
2018-08-25T03:04:53.958Z,24.6
2018-08-25T03:05:43.755Z,24.6
2018-08-25T03:06:33.576Z,24.6
2018-08-25T03:07:23.951Z,24.6
2018-08-25T03:08:13.994Z,24.6
2018-08-25T03:09:04.042Z,24.6
2018-08-25T03:09:54.360Z,24.6
2018-08-25T03:10:44.669Z,24.6
2018-08-25T03:11:33.396Z,24.6
2018-08-25T03:12:24.586Z,24.6
2018-08-25T03:13:13.508Z,24.6
2018-08-25T03:14:04.480Z,24.6
2018-08-25T03:14:53.998Z,24.6
2018-08-25T03:15:43.752Z,24.6
2018-08-25T03:16:34.368Z,24.6
2018-08-25T03:17:24.745Z,24.6
2018-08-25T03:18:14.681Z,24.6
2018-08-25T03:19:04.497Z,24.6
2018-08-25T03:19:55.142Z,24.6
2018-08-25T03:20:43.928Z,24.6
2018-08-25T03:21:34.434Z,24.6
2018-08-25T03:22:24.468Z,24.6
2018-08-25T03:23:15.452Z,24.6
2018-08-25T03:24:04.952Z,24.6
2018-08-25T03:24:55.551Z,24.6
2018-08-25T03:25:44.232Z,24.6
2018-08-25T03:26:35.618Z,24.6
2018-08-25T03:27:25.472Z,24.6
2018-08-25T03:28:15.545Z,24.6
2018-08-25T03:29:05.577Z,24.6
2018-08-25T03:29:54.847Z,24.6
2018-08-25T03:30:45.624Z,24.6
2018-08-25T03:31:35.759Z,24.6
2018-08-25T03:32:25.970Z,24.6
2018-08-25T03:33:16.648Z,24.6
2018-08-25T03:34:05.701Z,24.6
2018-08-25T03:34:55.181Z,24.6
2018-08-25T03:35:46.816Z,24.6
2018-08-25T03:36:35.296Z,24.6
2018-08-25T03:37:25.664Z,24.6
2018-08-25T03:38:17.308Z,24.6
2018-08-25T03:39:06.888Z,24.6
2018-08-25T03:39:56.939Z,24.6
2018-08-25T03:40:46.755Z,24.6
2018-08-25T03:41:35.985Z,24.6
2018-08-25T03:42:26.868Z,24.6
2018-08-25T03:43:15.899Z,24.6
2018-08-25T03:44:07.075Z,24.6
2018-08-25T03:44:56.170Z,24.6
2018-08-25T03:45:46.331Z,24.6
2018-08-25T03:46:36.336Z,24.6
2018-08-25T03:47:27.038Z,24.6
2018-08-25T03:48:16.992Z,24.5
2018-08-25T03:49:06.537Z,24.5
2018-08-25T03:49:56.981Z,24.5
2018-08-25T03:50:48.263Z,24.5
2018-08-25T03:51:37.287Z,24.5
2018-08-25T03:52:27.919Z,24.5
2018-08-25T03:53:18.042Z,24.5
2018-08-25T03:54:06.598Z,24.5
2018-08-25T03:54:58.395Z,24.5
2018-08-25T03:55:48.440Z,24.4
2018-08-25T03:56:38.475Z,24.4
2018-08-25T03:57:28.285Z,24.5
2018-08-25T03:58:16.737Z,24.4
2018-08-25T03:59:08.746Z,24.4
2018-08-25T03:59:57.971Z,24.4
2018-08-25T04:00:48.810Z,24.4
2018-08-25T04:01:40.668Z,24.4
2018-08-25T04:02:28.357Z,24.4
2018-08-25T04:03:17.615Z,24.4
2018-08-25T04:04:08.817Z,24.4
2018-08-25T04:04:58.834Z,24.4
2018-08-25T04:05:48.898Z,24.4
2018-08-25T04:06:39.235Z,24.4
2018-08-25T04:07:28.465Z,24.4
2018-08-25T04:08:18.815Z,24.4
2018-08-25T04:09:09.462Z,24.4
2018-08-25T04:09:58.085Z,24.4
2018-08-25T04:10:49.315Z,24.4
2018-08-25T04:11:39.699Z,24.4
2018-08-25T04:12:28.260Z,24.4
2018-08-25T04:13:18.980Z,24.4
2018-08-25T04:14:09.787Z,24.4
2018-08-25T04:15:01.424Z,24.4
2018-08-25T04:15:49.139Z,24.3
2018-08-25T04:16:38.878Z,24.3
2018-08-25T04:17:29.891Z,24.3
2018-08-25T04:18:19.620Z,24.4
2018-08-25T04:19:09.975Z,24.3
2018-08-25T04:19:59.787Z,24.3
2018-08-25T04:20:50.089Z,24.3
2018-08-25T04:21:40.160Z,24.3
2018-08-25T04:22:30.762Z,24.3
2018-08-25T04:23:20.075Z,24.3
2018-08-25T04:24:09.752Z,24.3
2018-08-25T04:25:00.138Z,24.3
2018-08-25T04:25:49.472Z,24.3
2018-08-25T04:26:40.575Z,24.3
2018-08-25T04:27:29.788Z,24.3
2018-08-25T04:28:20.115Z,24.3
2018-08-25T04:29:10.802Z,24.3
2018-08-25T04:30:00.824Z,24.3
2018-08-25T04:30:50.569Z,24.3
2018-08-25T04:31:39.881Z,24.3
2018-08-25T04:32:31.264Z,24.3
2018-08-25T04:33:21.833Z,24.3
2018-08-25T04:34:11.149Z,24.3
2018-08-25T04:35:00.919Z,24.3
2018-08-25T04:35:51.001Z,24.3
2018-08-25T04:36:41.581Z,24.3
2018-08-25T04:37:31.035Z,24.3
2018-08-25T04:38:21.209Z,24.3
2018-08-25T04:39:11.806Z,24.3
2018-08-25T04:40:01.850Z,24.2
2018-08-25T04:40:51.393Z,24.2
2018-08-25T04:41:41.412Z,24.2
2018-08-25T04:42:32.309Z,24.1
2018-08-25T05:00:30.388Z,23.8
2018-08-25T05:01:19.712Z,23.8
2018-08-25T05:02:09.929Z,23.8
2018-08-25T05:03:00.377Z,23.8
2018-08-25T05:03:50.215Z,23.8
2018-08-25T05:04:39.858Z,23.8
2018-08-25T05:05:30.557Z,23.8
2018-08-25T05:06:20.337Z,23.8
2018-08-25T05:07:10.396Z,23.8
2018-08-25T05:07:59.655Z,23.7
2018-08-25T05:08:50.054Z,23.7
2018-08-25T05:09:40.448Z,23.7
2018-08-25T05:10:31.219Z,23.7
2018-08-25T05:11:20.967Z,23.7
2018-08-25T05:12:10.542Z,23.7
2018-08-25T05:13:01.168Z,23.7
2018-08-25T05:13:50.607Z,23.7
2018-08-25T05:14:41.032Z,23.7
2018-08-25T05:15:31.056Z,23.7
2018-08-25T05:16:21.115Z,23.7
2018-08-25T05:17:11.490Z,23.7
2018-08-25T05:18:00.954Z,23.7
2018-08-25T05:18:51.061Z,23.6
2018-08-25T05:19:41.698Z,23.6
2018-08-25T05:20:31.404Z,23.6
2018-08-25T05:21:21.554Z,23.6
2018-08-25T05:22:12.052Z,23.6
2018-08-25T05:23:01.920Z,23.6
2018-08-25T05:23:51.751Z,23.6
2018-08-25T05:24:41.786Z,23.6
2018-08-25T05:25:32.109Z,23.6
2018-08-25T05:26:22.160Z,23.6
2018-08-25T05:27:11.655Z,23.6
2018-08-25T05:28:02.036Z,23.6
2018-08-25T05:28:52.384Z,23.6
2018-08-25T05:29:42.711Z,23.6
2018-08-25T05:30:32.453Z,23.6
2018-08-25T05:31:21.701Z,23.6
2018-08-25T05:32:12.372Z,23.6
2018-08-25T05:33:02.135Z,23.6
2018-08-25T05:33:52.446Z,23.6
2018-08-25T05:34:42.285Z,23.6
2018-08-25T05:35:31.734Z,23.6
2018-08-25T05:36:23.244Z,23.6
2018-08-25T05:37:12.401Z,23.6
2018-08-25T05:38:02.797Z,23.6
2018-08-25T05:38:53.116Z,23.6
2018-08-25T05:39:42.936Z,23.6
2018-08-25T05:40:32.699Z,23.6
2018-08-25T05:41:23.085Z,23.6
2018-08-25T05:42:12.788Z,23.6
2018-08-25T05:43:02.581Z,23.6
2018-08-25T05:43:53.514Z,23.6
2018-08-25T05:44:42.853Z,23.6
2018-08-25T05:45:33.473Z,23.5
2018-08-25T05:46:23.127Z,23.5
2018-08-25T05:47:14.050Z,23.6
2018-08-25T05:48:03.009Z,23.6
2018-08-25T05:48:53.667Z,23.5
2018-08-25T05:49:42.329Z,23.5
2018-08-25T05:50:34.026Z,23.5
2018-08-25T05:51:24.732Z,23.5
2018-08-25T05:52:14.744Z,23.5
2018-08-25T05:53:04.522Z,23.5
2018-08-25T05:53:54.389Z,23.6
2018-08-25T05:54:44.058Z,23.5
2018-08-25T05:55:34.689Z,23.5
2018-08-25T05:56:24.450Z,23.5
2018-08-25T05:57:14.234Z,23.5
2018-08-25T05:58:05.254Z,23.5
2018-08-25T05:58:54.767Z,23.5
2018-08-25T05:59:45.309Z,23.5
2018-08-25T06:00:34.811Z,23.5
2018-08-25T06:01:24.579Z,23.5
2018-08-25T06:02:14.714Z,23.5
2018-08-25T06:03:05.553Z,23.5
2018-08-25T06:03:55.060Z,23.5
2018-08-25T06:04:44.766Z,23.5
2018-08-25T06:05:35.202Z,23.5
2018-08-25T06:06:25.188Z,23.5
2018-08-25T06:07:15.284Z,23.5
2018-08-25T06:08:04.910Z,23.4
2018-08-25T06:08:55.734Z,23.5
2018-08-25T06:09:45.491Z,23.5
2018-08-25T06:10:35.833Z,23.5
2018-08-25T06:11:24.503Z,23.5
2018-08-25T06:12:15.393Z,23.5
2018-08-25T06:13:05.719Z,23.5
2018-08-25T06:13:55.883Z,23.5
2018-08-25T06:14:46.413Z,23.5
2018-08-25T06:15:36.176Z,23.5
2018-08-25T06:16:25.698Z,23.5
2018-08-25T06:17:16.302Z,23.5
2018-08-25T06:18:06.369Z,23.5
2018-08-25T06:18:56.655Z,23.5
2018-08-25T06:19:46.200Z,23.5
2018-08-25T06:20:36.296Z,23.5
2018-08-25T06:21:26.136Z,23.5
2018-08-25T06:22:16.449Z,23.4
2018-08-25T06:23:06.268Z,23.5
2018-08-25T06:23:55.818Z,23.5
2018-08-25T06:24:46.651Z,23.5
2018-08-25T06:25:36.126Z,23.5
2018-08-25T06:26:25.945Z,23.5
2018-08-25T06:27:17.254Z,23.5
2018-08-25T06:28:07.178Z,23.5
2018-08-25T06:28:56.905Z,23.5
2018-08-25T06:29:48.735Z,23.5
2018-08-25T06:30:37.115Z,23.5
2018-08-25T06:31:26.929Z,23.5
2018-08-25T06:32:16.965Z,23.5
2018-08-25T06:33:07.559Z,23.5
2018-08-25T06:33:56.542Z,23.5
2018-08-25T06:34:47.117Z,23.5
2018-08-25T06:35:37.142Z,23.5
2018-08-25T06:36:27.391Z,23.6
2018-08-25T06:37:17.620Z,23.5
2018-08-25T06:38:07.555Z,23.5
2018-08-25T06:38:57.952Z,23.5
2018-08-25T06:39:48.287Z,23.6
2018-08-25T06:40:37.790Z,23.5
2018-08-25T06:41:27.057Z,23.5
2018-08-25T06:42:17.942Z,23.5
2018-08-25T06:43:07.188Z,23.5
2018-08-25T06:43:57.822Z,23.5
2018-08-25T06:44:47.026Z,23.5
2018-08-25T06:45:37.642Z,23.5
2018-08-25T06:46:28.325Z,23.5
2018-08-25T06:47:18.352Z,23.5
2018-08-25T06:48:08.395Z,23.5
2018-08-25T06:48:59.014Z,23.5
2018-08-25T06:49:47.672Z,23.5
2018-08-25T06:50:38.888Z,23.5
2018-08-25T06:51:28.940Z,23.5
2018-08-25T06:52:18.746Z,23.5
2018-08-25T06:53:09.003Z,23.5
2018-08-25T06:53:58.296Z,23.5
2018-08-25T06:54:47.797Z,23.5
2018-08-25T06:55:38.675Z,23.6
2018-08-25T06:56:28.814Z,23.6
2018-08-25T06:57:18.283Z,23.5
2018-08-25T06:58:09.079Z,23.5
2018-08-25T06:58:59.095Z,23.6
2018-08-25T06:59:49.088Z,23.6
2018-08-25T07:00:38.643Z,23.5
2018-08-25T07:01:29.121Z,23.6
2018-08-25T07:02:18.153Z,23.5
2018-08-25T07:03:09.084Z,23.6
2018-08-25T07:03:58.883Z,23.5
2018-08-25T07:04:49.655Z,23.5
2018-08-25T07:05:39.783Z,23.5
2018-08-25T07:06:29.588Z,23.5
2018-08-25T07:07:19.748Z,23.6
2018-08-25T07:08:09.666Z,23.5
2018-08-25T07:08:59.465Z,23.6
2018-08-25T07:09:50.648Z,23.6
2018-08-25T07:10:40.375Z,23.6
2018-08-25T07:11:29.655Z,23.6
2018-08-25T07:12:19.715Z,23.6
2018-08-25T07:13:10.292Z,23.6
2018-08-25T07:14:00.383Z,23.6
2018-08-25T07:14:50.718Z,23.6
2018-08-25T07:15:40.781Z,23.6
2018-08-25T07:16:30.226Z,23.6
2018-08-25T07:17:20.621Z,23.6
2018-08-25T07:18:10.402Z,23.6
2018-08-25T07:19:01.780Z,23.6
2018-08-25T07:19:50.519Z,23.6
2018-08-25T07:20:41.144Z,23.6
2018-08-25T07:21:31.005Z,23.6
2018-08-25T07:22:21.099Z,23.6
2018-08-25T07:23:11.373Z,23.6
2018-08-25T07:23:59.738Z,23.6
2018-08-25T07:24:50.700Z,23.6
2018-08-25T07:25:40.883Z,23.6
2018-08-25T07:26:31.197Z,23.6
2018-08-25T07:27:20.276Z,23.6
2018-08-25T07:28:11.729Z,23.6
2018-08-25T07:29:01.246Z,23.6
2018-08-25T07:29:50.808Z,23.6
2018-08-25T07:30:41.879Z,23.6
2018-08-25T07:31:32.277Z,23.6
2018-08-25T07:32:22.941Z,23.6
2018-08-25T07:33:11.639Z,23.6
2018-08-25T07:34:01.089Z,23.6
2018-08-25T07:34:52.556Z,23.6
2018-08-25T07:35:42.364Z,23.6
2018-08-25T07:36:32.082Z,23.6
2018-08-25T07:37:21.889Z,23.6
2018-08-25T07:38:12.390Z,23.6
2018-08-25T07:39:01.734Z,23.6
2018-08-25T07:39:51.801Z,23.6
2018-08-25T07:40:42.681Z,23.6
2018-08-25T07:41:32.555Z,23.6
2018-08-25T07:42:21.811Z,23.6
2018-08-25T07:43:12.664Z,23.6
2018-08-25T07:44:03.058Z,23.6
2018-08-25T07:44:52.282Z,23.6
2018-08-25T07:45:41.663Z,23.6
2018-08-25T07:46:32.075Z,23.6
2018-08-25T07:47:23.228Z,23.7
2018-08-25T07:48:13.362Z,23.7
2018-08-25T07:49:02.559Z,23.7
2018-08-25T07:49:52.296Z,23.7
2018-08-25T07:50:43.185Z,23.7
2018-08-25T07:51:33.530Z,23.7
2018-08-25T07:52:22.187Z,23.7
2018-08-25T07:53:13.444Z,23.7
2018-08-25T07:54:03.338Z,23.7
2018-08-25T07:54:53.232Z,23.7
2018-08-25T07:55:43.864Z,23.7
2018-08-25T07:56:33.601Z,23.7
2018-08-25T07:57:23.984Z,23.7
2018-08-25T07:58:13.314Z,23.8
2018-08-25T07:59:04.589Z,23.8
2018-08-25T07:59:53.835Z,23.8
2018-08-25T08:00:44.019Z,23.8
2018-08-25T08:01:33.791Z,23.8
2018-08-25T08:02:24.137Z,23.8
2018-08-25T08:03:14.164Z,23.8
2018-08-25T08:04:03.964Z,23.8
2018-08-25T08:04:54.856Z,23.8
2018-08-25T08:05:45.581Z,23.8
2018-08-25T08:06:33.844Z,23.8
2018-08-25T08:07:24.467Z,23.8
2018-08-25T08:08:13.547Z,23.8
2018-08-25T08:09:04.674Z,23.8
2018-08-25T08:09:54.396Z,23.8
2018-08-25T08:10:44.192Z,23.8
2018-08-25T08:11:33.805Z,23.8
2018-08-25T08:12:27.256Z,23.8
2018-08-25T08:13:14.998Z,23.8
2018-08-25T08:14:05.371Z,23.8
2018-08-25T08:14:54.817Z,23.8
2018-08-25T08:15:44.966Z,23.8
2018-08-25T08:16:35.236Z,23.8
2018-08-25T08:17:25.259Z,23.8
2018-08-25T08:18:14.533Z,23.8
2018-08-25T08:19:05.439Z,23.8
2018-08-25T08:19:55.503Z,23.8
2018-08-25T08:20:45.353Z,23.8
2018-08-25T08:21:35.008Z,23.8
2018-08-25T08:22:25.173Z,23.8
2018-08-25T08:23:15.444Z,23.8
2018-08-25T08:24:03.791Z,23.8
2018-08-25T08:24:55.889Z,23.8
2018-08-25T08:25:45.726Z,23.8
2018-08-25T08:26:35.361Z,23.8
2018-08-25T08:27:26.013Z,23.8
2018-08-25T08:28:16.456Z,23.8
2018-08-25T08:29:05.650Z,23.8
2018-08-25T08:29:56.492Z,23.8
2018-08-25T08:30:46.032Z,23.9
2018-08-25T08:31:36.438Z,23.9
2018-08-25T08:32:26.466Z,23.8
2018-08-25T08:33:17.173Z,23.9
2018-08-25T08:34:06.011Z,23.9
2018-08-25T08:34:56.368Z,23.9
2018-08-25T08:35:46.453Z,23.9
2018-08-25T08:36:37.037Z,23.9
2018-08-25T08:37:26.085Z,23.9
2018-08-25T08:38:17.227Z,23.9
2018-08-25T08:39:06.483Z,23.9
2018-08-25T08:39:55.841Z,23.9
2018-08-25T08:40:46.439Z,23.9
2018-08-25T08:41:36.421Z,23.9
2018-08-25T08:42:29.189Z,23.9
2018-08-25T08:43:17.104Z,23.9
2018-08-25T08:44:06.868Z,24
2018-08-25T08:44:57.218Z,24
2018-08-25T08:45:47.024Z,24
2018-08-25T08:46:36.787Z,24
2018-08-25T08:47:28.143Z,24
2018-08-25T08:48:17.705Z,24
2018-08-25T08:49:07.772Z,24.1
2018-08-25T08:49:58.416Z,24.1
2018-08-25T08:50:47.920Z,24.1
2018-08-25T08:51:38.543Z,24.1
2018-08-25T08:52:28.836Z,24.1
2018-08-25T08:53:17.795Z,24.1
2018-08-25T08:54:07.813Z,24.1
2018-08-25T08:54:58.514Z,24.1
2018-08-25T08:55:48.287Z,24.1
2018-08-25T08:56:38.654Z,24.1
2018-08-25T08:57:28.374Z,24.1
2018-08-25T08:58:19.649Z,24.1
2018-08-25T09:15:01.750Z,24.1
2018-08-25T09:15:51.020Z,24.1
2018-08-25T09:16:40.307Z,24.1
2018-08-25T09:17:32.028Z,24.1
2018-08-25T09:18:22.744Z,24.1
2018-08-25T09:19:12.451Z,24.1
2018-08-25T09:20:02.509Z,24.1
2018-08-25T09:20:52.217Z,24.2
2018-08-25T09:21:42.372Z,24.1
2018-08-25T09:22:31.339Z,24.1
2018-08-25T09:23:22.550Z,24.1
2018-08-25T09:24:12.310Z,24.2
2018-08-25T09:25:02.370Z,24.2
2018-08-25T09:25:52.944Z,24.1
2018-08-25T09:26:42.682Z,24.2
2018-08-25T09:27:34.949Z,24.2
2018-08-25T09:28:22.862Z,24.2
2018-08-25T09:29:12.758Z,24.3
2018-08-25T09:30:02.725Z,24.3
2018-08-25T09:30:53.602Z,24.3
2018-08-25T09:31:43.423Z,24.3
2018-08-25T09:32:33.182Z,24.3
2018-08-25T09:33:22.570Z,24.3
2018-08-25T09:34:13.099Z,24.3
2018-08-25T09:35:03.413Z,24.3
2018-08-25T09:35:55.451Z,24.3
2018-08-25T09:36:46.904Z,24.3
2018-08-25T09:37:33.861Z,24.3
2018-08-25T09:38:23.071Z,24.3
2018-08-25T09:39:13.754Z,24.3
2018-08-25T09:40:03.516Z,24.3
2018-08-25T09:40:53.571Z,24.3
2018-08-25T09:41:44.947Z,24.3
2018-08-25T09:42:33.195Z,24.3
2018-08-25T09:43:23.731Z,24.3
2018-08-25T09:44:14.396Z,24.3
2018-08-25T09:45:04.396Z,24.3
2018-08-25T09:45:54.803Z,24.3
2018-08-25T09:46:43.424Z,24.3
2018-08-25T09:47:34.041Z,24.3
2018-08-25T09:48:24.754Z,24.3
2018-08-25T09:49:14.762Z,24.3
2018-08-25T09:50:04.525Z,24.3
2018-08-25T09:50:55.395Z,24.4
2018-08-25T09:51:44.965Z,24.4
2018-08-25T09:52:34.537Z,24.4
2018-08-25T09:53:25.239Z,24.4
2018-08-25T09:54:15.408Z,24.4
2018-08-25T09:55:04.733Z,24.4
2018-08-25T09:55:54.699Z,24.4
2018-08-25T09:56:44.749Z,24.4
2018-08-25T09:57:35.650Z,24.4
2018-08-25T09:58:25.716Z,24.4
2018-08-25T09:59:16.150Z,24.4
2018-08-25T10:00:05.365Z,24.4
2018-08-25T10:00:55.937Z,24.4
2018-08-25T10:01:45.470Z,24.4
2018-08-25T10:02:35.801Z,24.5
2018-08-25T10:03:26.381Z,24.4
2018-08-25T10:04:15.395Z,24.5
2018-08-25T10:05:06.243Z,24.5
2018-08-25T10:05:56.394Z,24.4
2018-08-25T10:06:46.156Z,24.4
2018-08-25T10:07:35.965Z,24.5
2018-08-25T10:08:26.551Z,24.4
2018-08-25T10:09:16.328Z,24.5
2018-08-25T10:10:06.953Z,24.4
2018-08-25T10:10:58.362Z,24.5
2018-08-25T10:11:46.805Z,24.5
2018-08-25T10:12:36.623Z,24.5
2018-08-25T10:13:26.673Z,24.5
2018-08-25T10:14:17.018Z,24.5
2018-08-25T10:15:07.408Z,24.5
2018-08-25T10:15:56.933Z,24.6
2018-08-25T10:16:47.428Z,24.5
2018-08-25T10:17:36.516Z,24.6
2018-08-25T10:18:26.803Z,24.6
2018-08-25T10:19:17.098Z,24.6
2018-08-25T10:20:06.648Z,24.6
2018-08-25T10:20:57.280Z,24.6
2018-08-25T10:21:46.728Z,24.7
2018-08-25T10:22:36.730Z,24.8
2018-08-25T10:23:27.281Z,24.8
2018-08-25T10:24:16.985Z,24.8
2018-08-25T10:25:08.197Z,24.8
2018-08-25T10:25:58.131Z,24.7
2018-08-25T10:26:47.861Z,24.7
2018-08-25T10:27:37.491Z,24.7
2018-08-25T10:28:27.873Z,24.7
2018-08-25T10:29:18.215Z,24.8
2018-08-25T10:30:08.249Z,24.8
2018-08-25T10:30:56.967Z,24.8
2018-08-25T10:31:47.597Z,24.8
2018-08-25T10:32:37.071Z,24.8
2018-08-25T10:33:27.907Z,24.8
2018-08-25T10:34:18.022Z,24.8
2018-08-25T10:35:08.672Z,24.8
2018-08-25T10:35:58.805Z,24.8
2018-08-25T10:36:49.048Z,24.8
2018-08-25T10:37:38.267Z,24.8
2018-08-25T10:38:29.164Z,24.8
2018-08-25T10:39:18.689Z,24.8
2018-08-25T10:40:08.785Z,24.8
2018-08-25T10:40:58.061Z,24.8
2018-08-25T10:41:51.776Z,24.8
2018-08-25T10:42:38.966Z,24.8
2018-08-25T10:43:29.089Z,24.8
2018-08-25T10:44:18.276Z,24.8
2018-08-25T10:45:09.210Z,24.8
2018-08-25T10:45:58.950Z,24.8
2018-08-25T10:46:47.857Z,24.8
2018-08-25T10:47:38.761Z,24.8
2018-08-25T10:48:29.371Z,24.8
2018-08-25T10:49:19.799Z,24.9
2018-08-25T10:50:09.283Z,24.9
2018-08-25T10:50:59.331Z,24.9
2018-08-25T10:51:49.116Z,24.9
2018-08-25T10:52:40.403Z,24.9
2018-08-25T10:53:29.268Z,24.9
2018-08-25T10:54:19.904Z,24.9
2018-08-25T10:55:09.345Z,24.9
2018-08-25T10:55:59.986Z,24.9
2018-08-25T10:56:50.066Z,24.9
2018-08-25T10:57:40.907Z,24.9
2018-08-25T10:58:30.137Z,24.9
2018-08-25T10:59:20.234Z,24.9
2018-08-25T11:00:11.650Z,24.9
2018-08-25T11:01:03.911Z,24.9
2018-08-25T11:01:50.218Z,24.9
2018-08-25T11:02:39.967Z,24.9
2018-08-25T11:03:31.145Z,24.9
2018-08-25T11:04:20.932Z,24.9
2018-08-25T11:05:10.706Z,24.9
2018-08-25T11:06:00.580Z,24.9
2018-08-25T11:06:51.128Z,24.9
2018-08-25T11:07:41.383Z,24.9
2018-08-25T11:08:30.711Z,24.9
2018-08-25T11:09:21.048Z,24.9
2018-08-25T11:10:10.827Z,24.9
2018-08-25T11:11:00.634Z,25
2018-08-25T11:11:51.049Z,25
2018-08-25T11:12:41.296Z,25
2018-08-25T11:13:31.674Z,25
2018-08-25T11:14:21.704Z,25.1
2018-08-25T11:15:11.252Z,25
2018-08-25T11:16:01.574Z,25
2018-08-25T11:16:51.664Z,25
2018-08-25T11:17:41.410Z,25
2018-08-25T11:18:32.081Z,25.1
2018-08-25T11:19:22.129Z,25.1
2018-08-25T11:20:11.686Z,25.1
2018-08-25T11:21:01.695Z,25.1
2018-08-25T11:21:51.500Z,25.1
2018-08-25T11:22:42.187Z,25.1
2018-08-25T11:23:31.782Z,25.1
2018-08-25T11:24:21.070Z,25.1
2018-08-25T11:25:12.365Z,25.1
2018-08-25T11:26:01.229Z,25.1
2018-08-25T11:26:52.195Z,25.1
2018-08-25T11:27:41.990Z,25.1
2018-08-25T11:28:31.690Z,25.1
2018-08-25T11:29:25.227Z,25.2
2018-08-25T11:30:12.148Z,25.3
2018-08-25T11:31:02.147Z,25.4
2018-08-25T11:31:53.323Z,25.4
2018-08-25T11:32:42.577Z,25.4
2018-08-25T11:33:32.655Z,25.4
2018-08-25T11:34:23.280Z,25.4
2018-08-25T11:35:13.329Z,25.3
2018-08-25T11:36:02.825Z,25.3
2018-08-25T11:36:53.395Z,25.3
2018-08-25T11:37:44.858Z,25.2
2018-08-25T11:38:33.045Z,25.2
2018-08-25T11:39:23.404Z,25.2
2018-08-25T11:40:13.786Z,25.3
2018-08-25T11:41:02.987Z,25.3
2018-08-25T11:41:53.630Z,25.3
2018-08-25T11:42:43.365Z,25.3
2018-08-25T11:43:34.030Z,25.3
2018-08-25T11:44:23.552Z,25.3
2018-08-25T11:45:13.314Z,25.3
2018-08-25T11:46:03.602Z,25.3
2018-08-25T11:46:54.006Z,25.3
2018-08-25T11:47:43.219Z,25.3
2018-08-25T11:48:34.115Z,25.3
2018-08-25T11:49:23.077Z,25.3
2018-08-25T11:50:13.966Z,25.4
2018-08-25T11:51:04.642Z,25.4
2018-08-25T11:51:54.362Z,25.4
2018-08-25T11:52:44.824Z,25.4
2018-08-25T11:53:33.953Z,25.4
2018-08-25T11:54:24.914Z,25.4
2018-08-25T11:55:14.399Z,25.4
2018-08-25T11:56:05.044Z,25.4
2018-08-25T11:56:55.080Z,25.4
2018-08-25T11:57:43.696Z,25.4
2018-08-25T11:58:34.659Z,25.4